Time;durP1;ratioP1;P1;durP2;ratioP2;P2;SDS_P1;SDS_P2;PMS_P1;PMS_P2;Temp;Humidity;BMP_temperature;BMP_pressure;BME280_temperature;BME280_humidity;BME280_pressure;Samples;Min_cycle;Max_cycle;Signal;HPM_P1;HPM_P2
2023/08/21 00:01:52;;;;;;;9.10;5.20;;;;;;;21.85;100.00;99696.52;109384;1251;70007;-72
2023/08/21 00:04:19;;;;;;;9.30;5.20;;;;;;;21.83;100.00;99695.81;108655;1251;1002206;-72
2023/08/21 00:06:47;;;;;;;11.40;5.50;;;;;;;21.81;100.00;99694.16;109373;1251;60612;-73
2023/08/21 00:09:14;;;;;;;7.10;5.10;;;;;;;21.79;100.00;99697.92;109396;1251;60189;-73
2023/08/21 00:11:42;;;;;;;11.20;5.50;;;;;;;21.77;100.00;99704.31;109432;1252;72561;-72
2023/08/21 00:14:09;;;;;;;6.20;5.20;;;;;;;21.74;100.00;99704.52;109411;1251;71274;-72
2023/08/21 00:16:36;;;;;;;5.10;4.60;;;;;;;21.72;100.00;99705.25;109406;1252;73168;-73
2023/08/21 00:19:04;;;;;;;10.40;5.20;;;;;;;21.68;100.00;99707.48;109372;1251;60791;-75
2023/08/21 00:21:31;;;;;;;9.40;5.00;;;;;;;21.64;100.00;99710.68;109413;1251;58712;-73
2023/08/21 00:23:59;;;;;;;5.30;4.70;;;;;;;21.62;100.00;99713.84;109391;1251;72595;-73
2023/08/21 00:26:26;;;;;;;5.50;5.00;;;;;;;21.60;100.00;99716.37;109432;1251;70748;-72
2023/08/21 00:28:54;;;;;;;5.90;5.30;;;;;;;21.57;100.00;99723.19;109414;1251;71501;-73
2023/08/21 00:31:22;;;;;;;7.60;5.80;;;;;;;21.53;100.00;99718.14;109405;1251;61729;-75
2023/08/21 00:33:50;;;;;;;6.70;5.20;;;;;;;21.49;100.00;99720.91;109381;1251;58754;-75
2023/08/21 00:36:19;;;;;;;6.00;5.50;;;;;;;21.46;100.00;99722.51;109299;1251;73084;-76
2023/08/21 00:38:47;;;;;;;6.10;5.60;;;;;;;21.44;100.00;99719.81;109402;1251;70461;-75
2023/08/21 00:41:15;;;;;;;7.80;5.50;;;;;;;21.42;100.00;99720.57;109274;1251;72690;-73
2023/08/21 00:43:42;;;;;;;8.10;6.10;;;;;;;21.39;100.00;99717.90;109394;1251;59084;-73
2023/08/21 00:46:10;;;;;;;7.60;5.70;;;;;;;21.38;100.00;99719.07;109312;1251;59323;-75
2023/08/21 00:48:38;;;;;;;7.20;5.10;;;;;;;21.37;100.00;99716.97;109421;1251;72552;-73
2023/08/21 00:51:06;;;;;;;5.70;5.20;;;;;;;21.35;100.00;99719.46;109036;1251;425950;-76
2023/08/21 00:53:34;;;;;;;10.40;5.90;;;;;;;21.34;100.00;99719.73;109368;1251;73154;-75
2023/08/21 00:56:02;;;;;;;6.70;5.60;;;;;;;21.33;100.00;99721.41;109303;1251;58842;-75
2023/08/21 00:58:30;;;;;;;7.00;5.90;;;;;;;21.32;100.00;99720.23;109453;1251;58755;-75
2023/08/21 01:00:57;;;;;;;5.80;5.00;;;;;;;21.31;100.00;99714.36;109424;1250;72635;-73
2023/08/21 01:03:25;;;;;;;6.80;5.50;;;;;;;21.31;100.00;99713.38;109285;1251;69993;-75
2023/08/21 01:05:52;;;;;;;6.70;5.70;;;;;;;21.29;100.00;99713.33;109396;1251;71379;-75
2023/08/21 01:08:26;;;;;;;6.20;5.60;;;;;;;21.28;100.00;99712.70;109235;1251;60630;-75
2023/08/21 01:11:03;;;;;;;8.20;5.80;;;;;;;21.25;100.00;99713.23;109360;1251;58796;-74
2023/08/21 01:13:50;;;;;;;6.10;5.50;;;;;;;21.23;100.00;99712.89;109254;1251;73796;-75
2023/08/21 01:16:17;;;;;;;6.60;5.30;;;;;;;21.22;100.00;99712.81;109298;1251;70942;-74
2023/08/21 01:18:45;;;;;;;7.30;5.30;;;;;;;21.22;100.00;99712.25;109314;1251;72800;-75
2023/08/21 01:21:13;;;;;;;7.20;5.70;;;;;;;21.23;100.00;99712.91;109394;1251;60086;-75
2023/08/21 01:23:42;;;;;;;5.90;5.10;;;;;;;21.22;100.00;99716.22;109210;1251;59993;-74
2023/08/21 01:26:09;;;;;;;10.30;5.20;;;;;;;21.19;100.00;99717.64;109427;1251;73921;-75
2023/08/21 01:28:37;;;;;;;6.60;6.00;;;;;;;21.17;100.00;99717.66;109375;1251;70735;-74
2023/08/21 01:31:06;;;;;;;8.20;5.00;;;;;;;21.15;100.00;99725.02;109278;1251;72709;-74
2023/08/21 01:33:37;;;;;;;6.10;5.50;;;;;;;21.15;100.00;99729.69;109279;1251;61729;-75
2023/08/21 01:36:04;;;;;;;7.00;5.20;;;;;;;21.14;100.00;99736.73;109097;1251;58812;-75
2023/08/21 01:38:33;;;;;;;6.10;5.20;;;;;;;21.13;100.00;99742.16;109419;1251;72624;-75
2023/08/21 01:41:01;;;;;;;7.00;5.40;;;;;;;21.13;100.00;99738.05;109447;1251;72509;-75
2023/08/21 01:43:29;;;;;;;7.70;5.70;;;;;;;21.11;100.00;99741.04;109391;1251;72384;-74
2023/08/21 01:45:56;;;;;;;5.50;5.10;;;;;;;21.10;100.00;99739.55;109402;1252;60391;-75
2023/08/21 01:48:24;;;;;;;6.40;5.00;;;;;;;21.10;100.00;99742.34;109395;1251;60013;-75
2023/08/21 01:50:52;;;;;;;5.50;5.00;;;;;;;21.09;100.00;99738.15;109352;1251;73884;-74
2023/08/21 01:53:19;;;;;;;5.80;5.30;;;;;;;21.07;100.00;99742.06;109444;1251;69830;-75
2023/08/21 01:55:46;;;;;;;5.00;4.60;;;;;;;21.05;100.00;99742.57;109370;1251;71348;-75
2023/08/21 01:58:16;;;;;;;5.20;4.80;;;;;;;21.05;100.00;99740.09;109369;1251;60088;-75
2023/08/21 02:00:48;;;;;;;8.90;5.30;;;;;;;21.03;100.00;99739.33;108533;1251;1002113;-74
2023/08/21 02:03:16;;;;;;;6.90;4.80;;;;;;;21.02;100.00;99738.38;109416;1251;72596;-74
2023/08/21 02:05:43;;;;;;;7.20;4.70;;;;;;;21.01;100.00;99737.02;109427;1251;71695;-74
2023/08/21 02:08:14;;;;;;;5.00;4.50;;;;;;;20.99;100.00;99735.16;109431;1251;73159;-74
2023/08/21 02:10:51;;;;;;;5.90;5.00;;;;;;;21.00;100.00;99736.21;109449;1251;58830;-75
2023/08/21 02:13:18;;;;;;;6.10;5.50;;;;;;;20.99;100.00;99739.27;109317;1251;60029;-75
2023/08/21 02:15:46;;;;;;;6.00;5.00;;;;;;;20.99;100.00;99738.02;109367;1251;74201;-75
2023/08/21 02:18:14;;;;;;;6.20;5.00;;;;;;;21.01;100.00;99749.33;109373;1251;69514;-74
2023/08/21 02:20:41;;;;;;;9.60;4.70;;;;;;;21.01;100.00;99750.23;109390;1251;72465;-74
2023/08/21 02:23:09;;;;;;;6.30;4.70;;;;;;;21.00;100.00;99747.45;109280;1251;60556;-75
2023/08/21 02:25:37;;;;;;;5.50;4.70;;;;;;;20.98;100.00;99742.38;109439;1251;58378;-74
2023/08/21 02:28:04;;;;;;;5.60;5.10;;;;;;;20.95;100.00;99739.55;109448;1251;73969;-74
2023/08/21 02:30:32;;;;;;;5.90;5.40;;;;;;;20.91;100.00;99745.45;109471;1251;70630;-75
2023/08/21 02:33:00;;;;;;;5.60;5.00;;;;;;;20.88;100.00;99747.27;109394;1251;72596;-74
2023/08/21 02:35:27;;;;;;;6.80;5.40;;;;;;;20.84;100.00;99747.72;109363;1251;58774;-75
2023/08/21 02:37:55;;;;;;;6.20;5.60;;;;;;;20.82;100.00;99744.70;109417;1251;58782;-75
2023/08/21 02:40:22;;;;;;;6.00;5.20;;;;;;;20.79;100.00;99744.88;109394;1251;73901;-74
2023/08/21 02:42:50;;;;;;;5.50;5.00;;;;;;;20.77;100.00;99745.36;109398;1252;70779;-75
2023/08/21 02:45:18;;;;;;;6.10;5.20;;;;;;;20.74;100.00;99743.55;109375;1251;73210;-75
2023/08/21 02:47:46;;;;;;;12.20;5.70;;;;;;;20.72;100.00;99744.99;109383;1251;60943;-75
2023/08/21 02:50:14;;;;;;;6.70;5.80;;;;;;;20.69;100.00;99745.40;109420;1251;58743;-74
2023/08/21 02:52:41;;;;;;;8.10;5.20;;;;;;;20.67;100.00;99749.30;109442;1251;72551;-75
2023/08/21 02:55:09;;;;;;;7.30;5.90;;;;;;;20.65;100.00;99741.45;109430;1251;70769;-74
2023/08/21 02:57:36;;;;;;;5.80;5.30;;;;;;;20.63;100.00;99745.65;109308;1251;72497;-74
2023/08/21 03:00:04;;;;;;;6.20;4.80;;;;;;;20.62;100.00;99742.71;109382;1251;61699;-75
2023/08/21 03:02:32;;;;;;;5.30;4.90;;;;;;;20.61;100.00;99741.89;109420;1251;58795;-75
2023/08/21 03:05:00;;;;;;;8.10;5.90;;;;;;;20.59;100.00;99741.61;109428;1251;73799;-74
2023/08/21 03:07:28;;;;;;;7.50;6.10;;;;;;;20.58;100.00;99740.86;109416;1252;69658;-75
2023/08/21 03:09:55;;;;;;;7.00;6.20;;;;;;;20.57;100.00;99739.66;109420;1251;71548;-74
2023/08/21 03:12:23;;;;;;;7.60;5.70;;;;;;;20.58;100.00;99736.39;109431;1251;61813;-75
2023/08/21 03:14:50;;;;;;;6.90;5.60;;;;;;;20.59;100.00;99741.42;109364;1251;60691;-75
2023/08/21 03:17:18;;;;;;;9.70;6.00;;;;;;;20.60;100.00;99733.71;109294;1251;72639;-74
2023/08/21 03:19:45;;;;;;;10.30;7.10;;;;;;;20.61;100.00;99735.61;109346;1251;70769;-74
2023/08/21 03:22:13;;;;;;;8.70;6.70;;;;;;;20.61;100.00;99738.48;109378;1251;70515;-75
2023/08/21 03:24:42;;;;;;;9.20;7.30;;;;;;;20.61;100.00;99742.57;109312;1251;60411;-75
2023/08/21 03:27:09;;;;;;;10.90;6.30;;;;;;;20.64;100.00;99748.48;109395;1251;58798;-74
2023/08/21 03:29:37;;;;;;;10.70;6.60;;;;;;;20.64;100.00;99742.55;109450;1251;73829;-75
2023/08/21 03:32:04;;;;;;;7.10;6.40;;;;;;;20.65;100.00;99745.14;109416;1251;72017;-75
2023/08/21 03:34:32;;;;;;;10.20;6.10;;;;;;;20.67;100.00;99751.23;109383;1251;72665;-75
2023/08/21 03:37:01;;;;;;;12.20;6.50;;;;;;;20.69;100.00;99748.26;109348;1251;61688;-75
2023/08/21 03:39:30;;;;;;;6.90;6.20;;;;;;;20.72;100.00;99747.71;109326;1251;58763;-75
2023/08/21 03:41:57;;;;;;;6.70;6.10;;;;;;;20.74;100.00;99747.50;109331;1251;74273;-75
2023/08/21 03:44:25;;;;;;;6.90;6.20;;;;;;;20.77;100.00;99744.83;109378;1252;71119;-75
2023/08/21 03:46:52;;;;;;;15.00;7.00;;;;;;;20.78;100.00;99741.52;109390;1251;72672;-74
2023/08/21 03:49:20;;;;;;;11.40;7.10;;;;;;;20.83;100.00;99747.27;109412;1251;60470;-75
2023/08/21 03:51:48;;;;;;;11.80;7.60;;;;;;;20.86;100.00;99747.07;109338;1251;60042;-75
2023/08/21 03:54:16;;;;;;;19.50;9.30;;;;;;;20.89;100.00;99744.88;109467;1251;73800;-75
2023/08/21 03:56:43;;;;;;;16.10;9.50;;;;;;;20.91;100.00;99747.02;109447;1251;71604;-76
2023/08/21 03:59:10;;;;;;;17.20;8.80;;;;;;;20.93;100.00;99746.90;109378;1251;72757;-76
2023/08/21 04:01:38;;;;;;;15.10;7.80;;;;;;;20.93;100.00;99752.02;109385;1251;60345;-75
2023/08/21 04:04:05;;;;;;;14.30;7.30;;;;;;;20.93;100.00;99754.70;109399;1251;59178;-73
2023/08/21 04:06:33;;;;;;;13.10;7.80;;;;;;;20.93;100.00;99758.30;109399;1251;73866;-75
2023/08/21 04:09:00;;;;;;;13.60;8.70;;;;;;;20.91;100.00;99755.77;109426;1251;69864;-75
2023/08/21 04:11:28;;;;;;;13.60;8.10;;;;;;;20.91;100.00;99755.20;109421;1251;70950;-75
2023/08/21 04:13:57;;;;;;;10.50;7.50;;;;;;;20.94;100.00;99758.76;109381;1251;61689;-75
2023/08/21 04:16:24;;;;;;;12.20;7.20;;;;;;;20.96;100.00;99758.02;109334;1251;59124;-75
2023/08/21 04:18:52;;;;;;;12.60;8.30;;;;;;;20.99;100.00;99761.05;109425;1250;73816;-75
2023/08/21 04:21:20;;;;;;;17.50;8.70;;;;;;;21.02;100.00;99765.10;109288;1251;70749;-75
2023/08/21 04:23:51;;;;;;;16.20;8.30;;;;;;;21.05;100.00;99763.77;109380;1251;73165;-75
2023/08/21 04:26:18;;;;;;;16.60;8.70;;;;;;;21.11;100.00;99766.22;109351;1251;62445;-75
2023/08/21 04:28:46;;;;;;;14.40;9.40;;;;;;;21.16;100.00;99768.17;109453;1251;59937;-75
2023/08/21 04:31:14;;;;;;;14.70;8.90;;;;;;;21.20;100.00;99773.27;109458;1251;72598;-75
2023/08/21 04:33:42;;;;;;;15.40;8.70;;;;;;;21.23;100.00;99771.25;109331;1251;69607;-75
2023/08/21 04:36:16;;;;;;;16.40;9.00;;;;;;;21.27;100.00;99770.38;109353;1251;72666;-75
2023/08/21 04:38:46;;;;;;;27.40;9.40;;;;;;;21.32;100.00;99768.22;109392;1251;60912;-75
2023/08/21 04:41:14;;;;;;;19.00;8.80;;;;;;;21.37;100.00;99770.20;109399;1251;60035;-75
2023/08/21 04:43:44;;;;;;;16.30;8.60;;;;;;;21.42;100.00;99761.76;109378;1251;73832;-75
2023/08/21 04:46:11;;;;;;;23.90;8.20;;;;;;;21.47;100.00;99765.64;109394;1251;70786;-74
2023/08/21 04:48:41;;;;;;;16.10;8.10;;;;;;;21.55;100.00;99765.65;109315;1251;71350;-75
2023/08/21 04:51:08;;;;;;;22.80;9.00;;;;;;;21.62;100.00;99765.11;109368;1251;58948;-74
2023/08/21 04:53:36;;;;;;;15.10;8.30;;;;;;;21.69;100.00;99765.08;109314;1251;60087;-75
2023/08/21 04:56:04;;;;;;;11.80;7.60;;;;;;;21.77;100.00;99766.05;109317;1251;74672;-75
2023/08/21 04:58:32;;;;;;;15.70;7.60;;;;;;;21.85;100.00;99766.14;109364;1251;70754;-75
2023/08/21 05:01:00;;;;;;;11.90;7.50;;;;;;;21.97;100.00;99766.55;109323;1251;72925;-75
2023/08/21 05:03:28;;;;;;;23.90;9.30;;;;;;;22.07;100.00;99766.77;109450;1252;60108;-76
2023/08/21 05:05:55;;;;;;;23.70;10.10;;;;;;;22.17;100.00;99760.83;109312;1251;60526;-75
2023/08/21 05:08:23;;;;;;;28.30;12.70;;;;;;;22.26;100.00;99759.05;109423;1250;73851;-75
2023/08/21 05:10:58;;;;;;;41.80;15.40;;;;;;;22.35;100.00;99758.23;109437;1251;70380;-74
2023/08/21 05:13:25;;;;;;;;;;;;;;;22.44;100.00;99757.64;109415;1251;72447;-75
2023/08/21 05:15:54;;;;;;;42.40;17.00;;;;;;;22.53;100.00;99759.46;109341;1251;58742;-75
2023/08/21 05:18:23;;;;;;;57.80;21.00;;;;;;;22.60;100.00;99760.23;109337;1251;58975;-75
2023/08/21 05:20:51;;;;;;;47.20;17.10;;;;;;;22.68;100.00;99756.61;109342;1251;72215;-75
2023/08/21 05:23:18;;;;;;;35.60;13.10;;;;;;;22.76;100.00;99755.81;109461;1251;71494;-75
2023/08/21 05:25:48;;;;;;;21.00;8.70;;;;;;;22.84;100.00;99755.50;109354;1251;72501;-75
2023/08/21 05:28:16;;;;;;;23.90;9.60;;;;;;;22.94;100.00;99752.74;109321;1251;59369;-75
2023/08/21 05:30:43;;;;;;;26.00;10.10;;;;;;;23.05;100.00;99754.69;109441;1251;58944;-75
2023/08/21 05:33:10;;;;;;;26.80;9.10;;;;;;;23.16;100.00;99749.27;109134;1251;71875;-75
2023/08/21 05:35:43;;;;;;;18.70;7.40;;;;;;;23.27;100.00;99744.26;109470;1251;71282;-76
2023/08/21 05:38:11;;;;;;;22.20;7.80;;;;;;;23.39;100.00;99742.00;109419;1251;62510;-74
2023/08/21 05:40:40;;;;;;;11.40;5.40;;;;;;;23.51;100.00;99741.13;109466;1251;61729;-76
2023/08/21 05:43:08;;;;;;;7.60;5.40;;;;;;;23.62;100.00;99743.80;109331;1251;60650;-75
2023/08/21 05:45:36;;;;;;;11.80;4.90;;;;;;;23.76;100.00;99743.19;109408;1251;73894;-75
2023/08/21 05:48:05;;;;;;;14.60;5.80;;;;;;;23.87;100.00;99736.85;109348;1251;69625;-76
2023/08/21 05:50:33;;;;;;;7.40;5.40;;;;;;;23.98;100.00;99732.72;109356;1251;71484;-75
2023/08/21 05:53:01;;;;;;;8.40;5.20;;;;;;;24.07;100.00;99733.14;109439;1251;60084;-75
2023/08/21 05:55:29;;;;;;;11.00;5.70;;;;;;;24.18;100.00;99733.83;109350;1253;59972;-74
2023/08/21 05:57:56;;;;;;;8.80;4.70;;;;;;;24.28;100.00;99734.55;109442;1252;74619;-75
2023/08/21 06:00:24;;;;;;;10.50;4.70;;;;;;;24.40;100.00;99732.80;109401;1251;71028;-72
2023/08/21 06:02:52;;;;;;;6.80;5.20;;;;;;;24.53;100.00;99734.15;109385;1251;72763;-75
2023/08/21 06:05:55;;;;;;;9.20;4.90;;;;;;;24.67;100.00;99724.63;108825;1259;60120;-76
2023/08/21 06:08:23;;;;;;;9.30;4.80;;;;;;;24.76;100.00;99723.84;109257;1251;60081;-74
2023/08/21 06:10:51;;;;;;;11.60;5.00;;;;;;;24.84;100.00;99720.65;109441;1251;74622;-75
2023/08/21 06:13:19;;;;;;;10.60;5.40;;;;;;;24.94;100.00;99722.95;109426;1255;70043;-75
2023/08/21 06:15:48;;;;;;;6.40;4.90;;;;;;;25.02;100.00;99721.34;109358;1251;72917;-75
2023/08/21 06:18:16;;;;;;;8.40;5.00;;;;;;;25.08;100.00;99718.42;109329;1251;59459;-76
2023/08/21 06:20:43;;;;;;;6.20;4.90;;;;;;;25.14;100.00;99718.96;109354;1251;60488;-75
2023/08/21 06:23:11;;;;;;;9.70;5.40;;;;;;;25.17;100.00;99720.33;108653;1251;1002357;-73
2023/08/21 06:25:39;;;;;;;14.70;5.10;;;;;;;25.14;100.00;99721.06;109446;1251;70614;-74
2023/08/21 06:28:06;;;;;;;12.70;4.70;;;;;;;25.18;100.00;99724.80;109444;1251;71468;-73
2023/08/21 06:30:34;;;;;;;5.60;4.40;;;;;;;25.25;100.00;99721.52;109439;1251;60396;-73
2023/08/21 06:33:02;;;;;;;10.80;4.60;;;;;;;25.32;100.00;99727.01;109430;1251;59308;-74
2023/08/21 06:35:29;;;;;;;10.70;6.10;;;;;;;25.38;100.00;99726.83;109387;1251;74630;-74
2023/08/21 06:37:57;;;;;;;33.60;10.70;;;;;;;25.40;100.00;99725.20;109330;1251;70844;-73
2023/08/21 06:40:24;;;;;;;24.60;8.20;;;;;;;25.39;100.00;99724.70;109436;1251;72640;-73
2023/08/21 06:42:52;;;;;;;24.00;6.80;;;;;;;25.41;100.00;99727.25;109359;1251;60247;-75
2023/08/21 06:45:22;;;;;;;14.90;6.70;;;;;;;25.49;100.00;99723.79;109441;1253;58887;-75
2023/08/21 06:47:50;;;;;;;17.70;7.20;;;;;;;25.59;100.00;99720.14;109348;1251;73378;-76
2023/08/21 06:50:18;;;;;;;31.00;8.60;;;;;;;25.69;100.00;99717.08;109401;1251;70195;-74
2023/08/21 06:52:45;;;;;;;23.50;6.90;;;;;;;25.81;100.00;99718.61;109453;1251;71057;-75
2023/08/21 06:55:13;;;;;;;20.70;7.20;;;;;;;25.93;100.00;99714.84;109377;1251;59272;-76
2023/08/21 06:57:41;;;;;;;19.10;6.90;;;;;;;26.02;100.00;99707.50;109430;1252;60100;-75
2023/08/21 07:00:09;;;;;;;24.00;8.50;;;;;;;26.10;100.00;99709.04;109387;1251;74733;-76
2023/08/21 07:02:37;;;;;;;15.40;6.80;;;;;;;26.17;100.00;99707.49;109436;1252;71570;-76
2023/08/21 07:05:05;;;;;;;15.70;5.80;;;;;;;26.22;100.00;99706.45;109422;1251;72696;-75
2023/08/21 07:07:32;;;;;;;14.80;6.30;;;;;;;26.26;100.00;99699.92;109418;1251;59400;-73
2023/08/21 07:10:00;;;;;;;12.20;6.00;;;;;;;26.29;100.00;99702.21;109190;1252;60079;-73
2023/08/21 07:12:27;;;;;;;16.00;7.20;;;;;;;26.29;100.00;99702.34;109439;1251;74486;-73
2023/08/21 07:14:55;;;;;;;18.20;7.00;;;;;;;26.34;100.00;99702.74;109432;1251;71170;-73
2023/08/21 07:17:22;;;;;;;17.10;6.50;;;;;;;26.44;100.00;99708.52;109389;1251;70807;-73
2023/08/21 07:19:52;;;;;;;13.90;5.60;;;;;;;26.49;100.00;99700.27;109375;1253;60102;-73
2023/08/21 07:22:20;;;;;;;16.90;5.90;;;;;;;26.59;100.00;99692.95;109420;1253;58853;-74
2023/08/21 07:24:48;;;;;;;9.50;5.20;;;;;;;26.71;100.00;99692.02;109453;1252;74655;-73
2023/08/21 07:27:15;;;;;;;27.90;8.50;;;;;;;26.86;100.00;99688.73;109467;1251;71506;-73
2023/08/21 07:29:43;;;;;;;17.10;5.40;;;;;;;26.98;100.00;99689.09;109388;1251;72445;-73
2023/08/21 07:32:10;;;;;;;14.10;5.00;;;;;;;27.08;100.00;99685.55;109433;1251;58983;-74
2023/08/21 07:34:38;;;;;;;7.60;4.10;;;;;;;27.20;100.00;99680.56;109421;1253;59190;-74
2023/08/21 07:37:07;;;;;;;8.00;3.80;;;;;;;27.33;100.00;99683.24;109439;1251;73459;-73
2023/08/21 07:39:35;;;;;;;12.50;5.50;;;;;;;27.46;100.00;99678.48;109465;1253;70500;-75
2023/08/21 07:42:02;;;;;;;12.20;5.50;;;;;;;27.56;100.00;99681.99;109397;1251;72740;-75
2023/08/21 07:44:30;;;;;;;16.40;5.40;;;;;;;27.59;100.00;99673.91;109376;1253;60025;-76
2023/08/21 07:46:57;;;;;;;12.10;4.70;;;;;;;27.66;100.00;99678.08;109424;1251;58999;-76
2023/08/21 07:49:25;;;;;;;9.90;4.40;;;;;;;27.80;100.00;99677.55;109410;1251;74702;-75
2023/08/21 07:51:52;;;;;;;5.30;3.70;;;;;;;27.86;100.00;99672.96;109406;1251;69770;-76
2023/08/21 07:54:20;;;;;;;5.80;4.00;;;;;;;27.89;100.00;99671.04;109405;1253;72682;-74
2023/08/21 07:56:47;;;;;;;8.70;4.30;;;;;;;27.90;100.00;99668.02;109418;1251;60233;-74
2023/08/21 07:59:14;;;;;;;9.20;4.60;;;;;;;27.94;100.00;99668.55;109434;1251;60142;-74
2023/08/21 08:01:42;;;;;;;9.90;3.90;;;;;;;28.03;100.00;99667.94;109388;1251;74646;-73
2023/08/21 08:04:10;;;;;;;7.80;4.00;;;;;;;28.08;100.00;99663.98;109410;1251;70548;-73
2023/08/21 08:06:38;;;;;;;8.20;3.80;;;;;;;28.10;100.00;99666.95;109403;1252;72703;-73
2023/08/21 08:09:06;;;;;;;4.30;3.60;;;;;;;28.20;100.00;99663.61;109415;1252;59010;-74
2023/08/21 08:11:33;;;;;;;8.00;3.60;;;;;;;28.34;100.00;99660.51;109401;1251;60144;-74
2023/08/21 08:14:00;;;;;;;8.30;3.10;;;;;;;28.50;100.00;99658.80;109381;1251;64431;-73
2023/08/21 08:16:28;;;;;;;9.70;3.50;;;;;;;28.61;100.00;99661.21;109406;1251;61010;-73
2023/08/21 08:18:55;;;;;;;13.20;3.70;;;;;;;28.62;100.00;99657.73;109436;1252;63704;-74
2023/08/21 08:21:23;;;;;;;12.00;3.80;;;;;;;28.61;100.00;99655.50;109458;1251;59035;-73
2023/08/21 08:23:50;;;;;;;9.70;3.80;;;;;;;28.61;100.00;99655.29;109447;1251;59304;-74
2023/08/21 08:26:18;;;;;;;10.80;4.00;;;;;;;28.61;100.00;99653.73;109400;1255;74611;-75
2023/08/21 08:28:45;;;;;;;6.80;3.90;;;;;;;28.64;100.00;99651.91;109425;1251;61109;-76
2023/08/21 08:31:17;;;;;;;7.20;3.50;;;;;;;28.74;100.00;99651.86;109375;1252;63766;-74
2023/08/21 08:33:44;;;;;;;4.00;3.60;;;;;;;28.92;100.00;99650.09;109401;1253;59322;-73
2023/08/21 08:36:12;;;;;;;10.90;3.70;;;;;;;29.11;100.00;99648.59;109418;1251;59037;-73
2023/08/21 08:38:39;;;;;;;16.10;4.20;;;;;;;29.20;100.00;99647.10;109421;1251;64544;-73
2023/08/21 08:41:29;;;;;;;4.90;3.40;;;;;;;29.23;100.00;99648.59;109486;1251;62239;-74
2023/08/21 08:43:57;;;;;;;5.40;3.60;;;;;;;29.23;100.00;99643.17;109414;1253;62515;-76
2023/08/21 08:46:25;;;;;;;5.30;3.40;;;;;;;29.25;100.00;99641.80;109438;1251;59284;-73
2023/08/21 08:48:53;;;;;;;4.20;3.80;;;;;;;29.35;100.00;99642.09;109405;1252;59056;-76
2023/08/21 08:51:20;;;;;;;3.90;3.50;;;;;;;29.51;100.00;99643.66;109435;1251;66271;-73
2023/08/21 08:53:48;;;;;;;4.70;3.60;;;;;;;29.61;100.00;99642.45;109354;1251;62181;-74
2023/08/21 08:56:15;;;;;;;5.80;3.50;;;;;;;29.72;100.00;99641.11;109402;1251;63762;-74
2023/08/21 08:58:43;;;;;;;16.60;4.00;;;;;;;29.82;100.00;99637.95;109419;1253;59115;-74
2023/08/21 09:01:13;;;;;;;9.20;3.20;;;;;;;29.88;100.00;99638.36;109459;1251;59699;-73
2023/08/21 09:03:40;;;;;;;10.00;3.50;;;;;;;29.97;100.00;99634.47;109426;1251;65683;-74
2023/08/21 09:06:08;;;;;;;4.50;3.20;;;;;;;30.10;100.00;99630.52;109431;1251;60929;-74
2023/08/21 09:08:36;;;;;;;8.20;3.60;;;;;;;30.26;100.00;99623.77;109377;1252;62522;-73
2023/08/21 09:11:03;;;;;;;8.30;3.60;;;;;;;30.45;100.00;99618.48;109388;1252;58989;-73
2023/08/21 09:13:31;;;;;;;4.10;3.20;;;;;;;30.62;100.00;99617.98;109373;1251;60025;-73
2023/08/21 09:15:59;;;;;;;11.90;3.20;;;;;;;30.74;100.00;99614.58;107882;1251;1002468;-73
2023/08/21 09:18:27;;;;;;;5.70;3.60;;;;;;;30.84;100.00;99612.79;109371;1253;62427;-74
2023/08/21 09:20:55;;;;;;;6.80;3.20;;;;;;;30.88;100.00;99614.39;109437;1251;63753;-76
2023/08/21 09:23:22;;;;;;;8.80;3.00;;;;;;;30.91;100.00;99607.98;109455;1252;59119;-76
2023/08/21 09:25:50;;;;;;;9.50;3.50;;;;;;;30.96;100.00;99608.30;109464;1255;59066;-74
2023/08/21 09:28:20;;;;;;;4.60;3.40;;;;;;;31.02;100.00;99609.85;109412;1251;65752;-73
2023/08/21 09:30:51;;;;;;;3.70;3.20;;;;;;;31.08;100.00;99605.41;109434;1251;60903;-73
2023/08/21 09:33:23;;;;;;;3.80;3.40;;;;;;;31.14;100.00;99599.10;109444;1251;62443;-73
2023/08/21 09:35:54;;;;;;;8.00;3.00;;;;;;;31.21;100.00;99602.71;109414;1252;59548;-73
2023/08/21 09:38:22;;;;;;;7.80;3.70;;;;;;;31.28;100.00;99602.04;109457;1251;58950;-73
2023/08/21 09:40:53;;;;;;;5.80;3.00;;;;;;;31.27;100.00;99600.15;109421;1251;65783;-73
2023/08/21 09:43:21;;;;;;;7.60;3.10;;;;;;;31.20;100.00;99598.48;109453;1251;62190;-73
2023/08/21 09:45:53;;;;;;;4.90;3.20;;;;;;;31.18;100.00;99597.92;109450;1251;63177;-74
2023/08/21 09:48:27;;;;;;;7.00;3.20;;;;;;;31.26;100.00;99592.60;109424;1251;58986;-73
2023/08/21 09:50:55;;;;;;;3.60;3.20;;;;;;;31.42;100.00;99590.13;109419;1252;59334;-74
2023/08/21 09:53:23;;;;;;;10.20;2.50;;;;;;;31.50;100.00;99583.25;109421;1253;65760;-73
2023/08/21 09:55:54;;;;;;;8.50;3.40;;;;;;;31.48;100.00;99582.14;109441;1251;71139;-76
2023/08/21 09:58:21;;;;;;;5.50;3.00;;;;;;;31.45;100.00;99576.57;109435;1253;63751;-73
2023/08/21 10:00:49;;;;;;;3.90;2.90;;;;;;;31.53;100.00;99576.91;109410;1251;58967;-73
2023/08/21 10:03:18;;;;;;;5.10;2.80;;;;;;;31.67;100.00;99577.23;109445;1251;58989;-74
2023/08/21 10:05:48;;;;;;;4.80;2.80;;;;;;;31.75;100.00;99577.93;109369;1256;64426;-73
2023/08/21 10:08:16;;;;;;;5.20;2.60;;;;;;;31.83;100.00;99573.25;109413;1253;60886;-74
2023/08/21 10:10:44;;;;;;;4.70;2.60;;;;;;;32.01;100.00;99571.39;109374;1252;62420;-74
2023/08/21 10:13:11;;;;;;;7.10;2.60;;;;;;;32.24;100.00;99568.95;109396;1252;59393;-74
2023/08/21 10:15:39;;;;;;;4.30;2.60;;;;;;;32.40;100.00;99563.59;109314;1257;58943;-74
2023/08/21 10:18:30;;;;;;;5.80;2.40;;;;;;;32.52;100.00;99559.98;109451;1251;65761;-73
2023/08/21 10:21:18;;;;;;;7.30;2.70;;;;;;;32.54;100.00;99570.89;108607;1251;1002335;-74
2023/08/21 10:23:46;;;;;;;5.90;3.10;;;;;;;32.46;100.00;99569.77;109464;1253;64286;-74
2023/08/21 10:26:14;;;;;;;23.90;3.80;;;;;;;32.36;100.00;99573.05;109409;1252;59255;-75
2023/08/21 10:28:48;;;;;;;9.40;3.20;;;;;;;32.24;100.00;99581.64;109450;1251;59301;-75
2023/08/21 10:31:35;;;;;;;8.20;3.30;;;;;;;32.08;100.00;99588.86;109425;1251;66239;-75
2023/08/21 10:34:08;;;;;;;9.90;3.60;;;;;;;31.84;100.00;99601.19;109467;1251;61064;-74
2023/08/21 10:36:44;;;;;;;7.60;3.60;;;;;;;31.56;100.00;99615.73;109389;1251;63749;-74
2023/08/21 10:39:14;;;;;;;7.10;3.70;;;;;;;31.25;100.00;99623.56;109428;1251;58999;-74
2023/08/21 10:42:06;;;;;;;8.60;4.00;;;;;;;30.91;100.00;99631.77;109444;1255;59373;-73
2023/08/21 10:44:55;;;;;;;8.00;4.00;;;;;;;30.55;100.00;99641.28;109437;1251;66168;-74
2023/08/21 10:47:30;;;;;;;4.00;2.90;;;;;;;30.21;100.00;99645.35;109407;1251;62275;-75
2023/08/21 10:50:03;;;;;;;5.50;2.00;;;;;;;29.94;100.00;99644.45;109426;1253;63704;-74
2023/08/21 10:52:34;;;;;;;3.90;1.80;;;;;;;29.75;100.00;99636.29;109380;1253;59170;-73
2023/08/21 10:55:06;;;;;;;2.30;2.10;;;;;;;29.63;100.00;99628.35;109425;1251;59091;-75
2023/08/21 10:57:33;;;;;;;2.40;2.10;;;;;;;29.57;100.00;99631.08;109448;1251;68721;-74
2023/08/21 11:00:12;;;;;;;5.40;3.10;;;;;;;29.51;100.00;99629.49;109443;1251;62158;-73
2023/08/21 11:02:41;;;;;;;4.90;3.00;;;;;;;29.45;100.00;99628.00;109401;1253;64082;-74
2023/08/21 11:05:09;;;;;;;3.40;3.10;;;;;;;29.40;100.00;99625.02;109427;1253;58955;-73
2023/08/21 11:07:40;;;;;;;3.70;3.20;;;;;;;29.32;100.00;99624.79;109396;1255;58901;-74
2023/08/21 11:10:09;;;;;;;3.50;3.10;;;;;;;29.30;100.00;99629.37;109397;1255;64502;-73
2023/08/21 11:12:48;;;;;;;4.40;2.70;;;;;;;29.27;100.00;99630.60;109187;1254;62222;-74
2023/08/21 11:15:17;;;;;;;3.80;3.40;;;;;;;29.22;100.00;99631.52;109336;1253;63865;-73
2023/08/21 11:17:54;;;;;;;3.10;2.80;;;;;;;29.16;100.00;99629.40;109444;1251;58883;-74
2023/08/21 11:20:23;;;;;;;3.10;2.80;;;;;;;29.12;100.00;99628.45;109430;1251;58950;-74
2023/08/21 11:22:50;;;;;;;6.40;3.00;;;;;;;29.08;100.00;99619.88;109447;1251;64433;-74